createdAt,value
2016-07-22T00:00:51.730Z,0
2016-07-22T00:01:51.676Z,0
2016-07-22T00:02:51.734Z,0
2016-07-22T00:03:51.872Z,0
2016-07-22T00:04:51.681Z,0
2016-07-22T00:05:51.713Z,0
2016-07-22T00:06:51.695Z,0
2016-07-22T00:07:51.721Z,0
2016-07-22T00:08:51.753Z,0
2016-07-22T00:09:51.760Z,0
2016-07-22T00:10:51.673Z,0
2016-07-22T00:11:51.705Z,0
2016-07-22T00:12:51.716Z,0
2016-07-22T00:13:51.727Z,0
2016-07-22T00:14:51.766Z,0
2016-07-22T00:15:51.712Z,0
2016-07-22T00:16:51.745Z,0
2016-07-22T00:17:51.757Z,0
2016-07-22T00:18:51.716Z,0
2016-07-22T00:19:51.706Z,0
2016-07-22T00:20:51.699Z,0
2016-07-22T00:21:51.718Z,0
2016-07-22T00:22:51.743Z,0
2016-07-22T00:23:51.723Z,0
2016-07-22T00:24:51.752Z,0
2016-07-22T00:25:51.706Z,0
2016-07-22T00:26:51.719Z,0
2016-07-22T00:27:51.717Z,0
2016-07-22T00:28:51.748Z,0
2016-07-22T00:29:51.698Z,0
2016-07-22T00:30:51.745Z,0
2016-07-22T00:31:51.691Z,0
2016-07-22T00:32:51.685Z,0
2016-07-22T00:33:51.762Z,0
2016-07-22T00:34:51.720Z,0
2016-07-22T00:35:51.706Z,0
2016-07-22T00:36:51.711Z,0
2016-07-22T00:37:51.735Z,0
2016-07-22T00:38:51.731Z,0
2016-07-22T00:39:51.713Z,0
2016-07-22T00:40:51.734Z,0
2016-07-22T00:41:51.721Z,0
2016-07-22T00:42:51.736Z,0
2016-07-22T00:43:51.727Z,0
2016-07-22T00:44:51.744Z,0
2016-07-22T00:45:51.739Z,0
2016-07-22T00:46:51.726Z,0
2016-07-22T00:47:52.304Z,0
2016-07-22T00:48:51.740Z,0
2016-07-22T00:49:51.752Z,0
2016-07-22T00:50:51.728Z,0
2016-07-22T00:51:51.729Z,0
2016-07-22T00:52:51.688Z,0
2016-07-22T00:53:51.723Z,0
2016-07-22T00:54:51.670Z,0
2016-07-22T00:55:51.781Z,0
2016-07-22T00:56:51.684Z,0
2016-07-22T00:57:51.777Z,0
2016-07-22T00:58:51.727Z,0
2016-07-22T00:59:51.745Z,0
2016-07-22T01:00:51.765Z,0
2016-07-22T01:01:51.759Z,0
2016-07-22T01:02:51.761Z,0
2016-07-22T01:03:51.794Z,0
2016-07-22T01:04:51.722Z,0
2016-07-22T01:05:51.735Z,0
2016-07-22T01:06:51.776Z,0
2016-07-22T01:07:51.732Z,0
2016-07-22T01:08:51.765Z,0
2016-07-22T01:09:51.740Z,0
2016-07-22T01:10:51.796Z,0
2016-07-22T01:11:51.730Z,0
2016-07-22T01:12:52.521Z,0
2016-07-22T01:13:51.891Z,0
2016-07-22T01:14:51.745Z,0
2016-07-22T01:15:51.732Z,0
2016-07-22T01:16:51.756Z,0
2016-07-22T01:17:51.791Z,0
2016-07-22T01:18:51.786Z,0
2016-07-22T01:19:51.735Z,0
2016-07-22T01:20:51.796Z,0
2016-07-22T01:21:51.777Z,0
2016-07-22T01:22:51.731Z,0
2016-07-22T01:23:51.776Z,0
2016-07-22T01:24:51.744Z,0
2016-07-22T01:25:51.792Z,0
2016-07-22T01:26:51.774Z,0
2016-07-22T01:27:51.726Z,0
2016-07-22T01:28:51.734Z,0
2016-07-22T01:29:51.717Z,0
2016-07-22T01:30:51.715Z,0
2016-07-22T01:31:51.754Z,0
2016-07-22T01:32:51.736Z,0
2016-07-22T01:33:51.758Z,0
2016-07-22T01:34:51.788Z,0
2016-07-22T01:35:51.812Z,0
2016-07-22T01:36:53.454Z,0
2016-07-22T01:37:51.866Z,0
2016-07-22T01:38:51.793Z,0
2016-07-22T01:39:51.746Z,0
2016-07-22T01:40:51.773Z,0
2016-07-22T01:41:51.728Z,0
2016-07-22T01:42:51.761Z,0
2016-07-22T01:43:51.780Z,0
2016-07-22T01:44:51.725Z,0
2016-07-22T01:45:51.768Z,0
2016-07-22T01:46:51.756Z,0
2016-07-22T01:47:51.937Z,0
2016-07-22T01:48:51.729Z,0
2016-07-22T01:49:52.525Z,0
2016-07-22T01:50:51.816Z,0
2016-07-22T01:51:51.740Z,0
2016-07-22T01:52:51.784Z,0
2016-07-22T01:53:51.791Z,0
2016-07-22T01:54:51.765Z,0
2016-07-22T01:55:51.789Z,0
2016-07-22T01:56:51.721Z,0
2016-07-22T01:57:51.787Z,0
2016-07-22T01:58:51.811Z,0
2016-07-22T01:59:51.798Z,0
2016-07-22T02:00:51.805Z,0
2016-07-22T02:01:51.771Z,0
2016-07-22T02:02:51.786Z,0
2016-07-22T02:03:51.757Z,0
2016-07-22T02:04:51.725Z,0
2016-07-22T02:05:51.806Z,0
2016-07-22T02:06:51.763Z,0
2016-07-22T02:07:51.773Z,0
2016-07-22T02:08:51.799Z,0
2016-07-22T02:09:52.794Z,0
2016-07-22T02:10:51.761Z,0
2016-07-22T02:11:51.786Z,0
2016-07-22T02:12:51.735Z,0
2016-07-22T02:13:51.771Z,0
2016-07-22T02:14:51.765Z,0
2016-07-22T02:15:51.740Z,0
2016-07-22T02:16:51.763Z,0
2016-07-22T02:17:51.784Z,0
2016-07-22T02:18:51.801Z,0
2016-07-22T02:19:51.768Z,0
2016-07-22T02:20:51.775Z,0
2016-07-22T02:21:51.768Z,0
2016-07-22T02:22:51.761Z,0
2016-07-22T02:23:51.837Z,0
2016-07-22T02:24:51.772Z,0
2016-07-22T02:25:51.782Z,0
2016-07-22T02:26:51.767Z,0
2016-07-22T02:27:51.793Z,0
2016-07-22T02:28:51.812Z,0
2016-07-22T02:29:51.814Z,0
2016-07-22T02:30:51.815Z,0
2016-07-22T02:31:51.813Z,0
2016-07-22T02:32:51.801Z,0
2016-07-22T02:33:51.768Z,0
2016-07-22T02:34:51.756Z,0
2016-07-22T02:35:51.814Z,0
2016-07-22T02:36:51.805Z,0
2016-07-22T02:37:51.752Z,0
2016-07-22T02:38:51.813Z,0
2016-07-22T02:39:51.750Z,0
2016-07-22T02:40:51.767Z,0
2016-07-22T02:41:51.812Z,0
2016-07-22T02:42:51.815Z,0
2016-07-22T02:43:51.776Z,0
2016-07-22T02:44:51.814Z,0
2016-07-22T02:45:51.792Z,0
2016-07-22T02:46:51.798Z,0
2016-07-22T02:47:51.760Z,0
2016-07-22T02:48:51.790Z,0
2016-07-22T02:49:51.802Z,0
2016-07-22T02:50:51.818Z,0
2016-07-22T02:51:51.759Z,0
2016-07-22T02:52:51.773Z,0
2016-07-22T02:53:52.515Z,0
2016-07-22T02:54:51.822Z,0
2016-07-22T02:55:51.821Z,0
2016-07-22T02:56:51.813Z,0
2016-07-22T02:57:51.805Z,0
2016-07-22T02:58:52.348Z,0
2016-07-22T02:59:51.804Z,0
2016-07-22T03:00:51.801Z,0
2016-07-22T03:01:51.771Z,0
2016-07-22T03:02:51.785Z,0
2016-07-22T03:03:51.794Z,0
2016-07-22T03:04:51.800Z,0
2016-07-22T03:05:51.771Z,0
2016-07-22T03:06:51.824Z,0
2016-07-22T03:07:51.829Z,0
2016-07-22T03:08:51.824Z,0
2016-07-22T03:09:51.801Z,0
2016-07-22T03:10:51.830Z,0
2016-07-22T03:11:53.327Z,0
2016-07-22T03:12:52.375Z,0
2016-07-22T03:13:52.482Z,0
2016-07-22T03:14:51.791Z,0
2016-07-22T03:15:51.841Z,0
2016-07-22T03:16:51.788Z,0
2016-07-22T03:17:51.801Z,0
2016-07-22T03:18:51.837Z,0
2016-07-22T03:19:51.843Z,0
2016-07-22T03:20:51.835Z,0
2016-07-22T03:21:51.781Z,0
2016-07-22T03:22:51.804Z,0
2016-07-22T03:23:51.822Z,0
2016-07-22T03:24:51.802Z,0
2016-07-22T03:25:51.829Z,0
2016-07-22T03:26:51.788Z,0
2016-07-22T03:27:51.899Z,0
2016-07-22T03:28:51.830Z,0
2016-07-22T03:29:51.769Z,0
2016-07-22T03:30:51.842Z,0
2016-07-22T03:31:51.806Z,0
2016-07-22T03:32:51.824Z,0
2016-07-22T03:33:51.793Z,0
2016-07-22T03:34:51.880Z,0
2016-07-22T03:35:51.820Z,0
2016-07-22T03:36:51.813Z,0
2016-07-22T03:37:51.819Z,0
2016-07-22T03:38:51.818Z,0
2016-07-22T03:39:51.865Z,5
2016-07-22T03:40:51.857Z,5
2016-07-22T03:41:51.791Z,5
2016-07-22T03:42:51.804Z,5
2016-07-22T03:43:51.814Z,5
2016-07-22T03:44:52.117Z,5
2016-07-22T03:45:51.855Z,5
2016-07-22T03:46:51.859Z,5
2016-07-22T03:47:51.834Z,5
2016-07-22T03:48:51.796Z,5
2016-07-22T03:49:51.793Z,5
2016-07-22T03:50:51.829Z,10
2016-07-22T03:51:51.847Z,10
2016-07-22T03:52:51.854Z,10
2016-07-22T03:53:51.858Z,10
2016-07-22T03:54:51.797Z,10
2016-07-22T03:55:51.877Z,10
2016-07-22T03:56:51.851Z,10
2016-07-22T03:57:51.863Z,10
2016-07-22T03:58:51.825Z,10
2016-07-22T03:59:51.815Z,10
2016-07-22T04:00:51.836Z,10
2016-07-22T04:01:51.851Z,15
2016-07-22T04:02:51.840Z,15
2016-07-22T04:03:51.829Z,15
2016-07-22T04:04:51.832Z,15
2016-07-22T04:05:51.852Z,15
2016-07-22T04:06:51.854Z,15
2016-07-22T04:07:51.844Z,20
2016-07-22T04:08:51.810Z,20
2016-07-22T04:09:51.816Z,20
2016-07-22T04:10:51.815Z,20
2016-07-22T04:11:54.703Z,25
2016-07-22T04:12:51.880Z,25
2016-07-22T04:13:51.817Z,25
2016-07-22T04:14:51.877Z,25
2016-07-22T04:15:51.800Z,30
2016-07-22T04:16:51.861Z,30
2016-07-22T04:17:51.913Z,30
2016-07-22T04:18:51.836Z,35
2016-07-22T04:19:51.865Z,35
2016-07-22T04:20:51.842Z,40
2016-07-22T04:21:51.895Z,40
2016-07-22T04:22:51.805Z,40
2016-07-22T04:23:51.835Z,45
2016-07-22T04:24:51.849Z,45
2016-07-22T04:25:51.829Z,45
2016-07-22T04:26:51.865Z,45
2016-07-22T04:27:51.874Z,45
2016-07-22T04:28:51.812Z,50
2016-07-22T04:29:51.881Z,50
2016-07-22T04:30:51.860Z,50
2016-07-22T04:31:51.837Z,50
2016-07-22T04:32:51.885Z,50
2016-07-22T04:33:51.836Z,55
2016-07-22T04:34:51.833Z,55
2016-07-22T04:35:51.792Z,55
2016-07-22T04:36:51.827Z,55
2016-07-22T04:37:51.908Z,55
2016-07-22T04:38:51.874Z,55
2016-07-22T04:39:51.851Z,55
2016-07-22T04:40:51.813Z,55
2016-07-22T04:41:51.801Z,55
2016-07-22T04:42:51.854Z,55
2016-07-22T04:43:51.880Z,60
2016-07-22T04:44:51.946Z,60
2016-07-22T04:45:51.855Z,60
2016-07-22T04:46:51.861Z,60
2016-07-22T04:47:51.849Z,65
2016-07-22T04:48:51.838Z,65
2016-07-22T04:49:51.881Z,70
2016-07-22T04:50:51.899Z,75
2016-07-22T04:51:51.863Z,75
2016-07-22T04:52:51.907Z,80
2016-07-22T04:53:51.859Z,80
2016-07-22T04:54:51.908Z,80
2016-07-22T04:55:51.882Z,80
2016-07-22T04:56:51.918Z,80
2016-07-22T04:57:51.876Z,80
2016-07-22T04:58:51.893Z,80
2016-07-22T04:59:51.953Z,85
2016-07-22T05:00:51.854Z,85
2016-07-22T05:01:51.909Z,85
2016-07-22T05:02:51.857Z,85
2016-07-22T05:03:51.848Z,85
2016-07-22T05:04:51.895Z,85
2016-07-22T05:05:51.862Z,85
2016-07-22T05:06:51.840Z,90
2016-07-22T05:07:51.871Z,90
2016-07-22T05:08:51.878Z,90
2016-07-22T05:09:51.919Z,95
2016-07-22T05:10:51.906Z,95
2016-07-22T05:11:51.891Z,95
2016-07-22T05:12:51.877Z,100
2016-07-22T05:13:51.904Z,105
2016-07-22T05:14:51.867Z,100
2016-07-22T05:15:52.136Z,105
2016-07-22T05:16:51.896Z,105
2016-07-22T05:17:51.867Z,105
2016-07-22T05:18:51.894Z,105
2016-07-22T05:19:52.558Z,105
2016-07-22T05:20:51.908Z,110
2016-07-22T05:21:51.881Z,110
2016-07-22T05:22:51.867Z,110
2016-07-22T05:23:51.907Z,110
2016-07-22T05:24:52.488Z,110
2016-07-22T05:25:51.914Z,110
2016-07-22T05:26:51.842Z,110
2016-07-22T05:27:51.827Z,110
2016-07-22T05:28:51.893Z,110
2016-07-22T05:29:51.912Z,110
2016-07-22T05:30:51.954Z,110
2016-07-22T05:31:51.892Z,110
2016-07-22T05:32:51.875Z,110
2016-07-22T05:33:51.885Z,110
2016-07-22T05:34:51.874Z,115
2016-07-22T05:35:51.960Z,115
2016-07-22T05:36:52.010Z,115
2016-07-22T05:37:51.923Z,125
2016-07-22T05:38:51.847Z,120
2016-07-22T05:39:51.869Z,125
2016-07-22T05:40:51.903Z,125
2016-07-22T05:41:51.897Z,125
2016-07-22T05:42:51.903Z,130
2016-07-22T05:43:51.909Z,130
2016-07-22T05:44:51.929Z,130
2016-07-22T05:45:51.952Z,130
2016-07-22T05:46:51.934Z,130
2016-07-22T05:47:51.902Z,135
2016-07-22T05:48:51.960Z,135
2016-07-22T05:49:51.966Z,135
2016-07-22T05:50:51.938Z,135
2016-07-22T05:51:51.848Z,140
2016-07-22T05:52:51.889Z,140
2016-07-22T05:53:51.954Z,140
2016-07-22T05:54:51.894Z,140
2016-07-22T05:55:51.934Z,140
2016-07-22T05:56:51.973Z,135
2016-07-22T05:57:51.921Z,135
2016-07-22T05:58:52.018Z,130
2016-07-22T05:59:51.929Z,130
2016-07-22T06:00:51.890Z,125
2016-07-22T06:01:51.867Z,125
2016-07-22T06:02:51.930Z,125
2016-07-22T06:03:51.894Z,120
2016-07-22T06:04:51.916Z,120
2016-07-22T06:05:52.001Z,120
2016-07-22T06:06:52.468Z,125
2016-07-22T06:07:51.911Z,125
2016-07-22T06:08:51.957Z,125
2016-07-22T06:09:52.421Z,125
2016-07-22T06:10:51.969Z,125
2016-07-22T06:11:51.947Z,125
2016-07-22T06:12:51.928Z,125
2016-07-22T06:13:51.915Z,125
2016-07-22T06:14:51.942Z,125
2016-07-22T06:15:51.954Z,125
2016-07-22T06:16:51.927Z,130
2016-07-22T06:17:52.149Z,130
2016-07-22T06:18:51.918Z,130
2016-07-22T06:19:51.926Z,130
2016-07-22T06:20:51.948Z,135
2016-07-22T06:21:53.020Z,140
2016-07-22T06:22:51.978Z,145
2016-07-22T06:23:51.941Z,155
2016-07-22T06:24:51.930Z,170
2016-07-22T06:25:52.044Z,180
2016-07-22T06:26:51.932Z,195
2016-07-22T06:27:52.004Z,210
2016-07-22T06:28:52.347Z,215
2016-07-22T06:29:51.998Z,210
2016-07-22T06:30:51.989Z,205
2016-07-22T06:31:51.897Z,185
2016-07-22T06:32:51.892Z,160
2016-07-22T06:33:52.383Z,145
2016-07-22T06:34:52.287Z,140
2016-07-22T06:35:51.977Z,135
2016-07-22T06:36:51.946Z,140
2016-07-22T06:37:51.969Z,145
2016-07-22T06:38:51.982Z,150
2016-07-22T06:39:51.943Z,160
2016-07-22T06:40:51.951Z,170
2016-07-22T06:41:51.953Z,175
2016-07-22T06:42:52.013Z,180
2016-07-22T06:43:51.950Z,185
2016-07-22T06:44:51.897Z,185
2016-07-22T06:45:51.962Z,190
2016-07-22T06:46:52.128Z,190
2016-07-22T06:47:52.255Z,185
2016-07-22T06:48:51.951Z,190
2016-07-22T06:49:51.976Z,185
2016-07-22T06:50:51.954Z,190
2016-07-22T06:51:52.103Z,195
2016-07-22T06:52:51.948Z,205
2016-07-22T06:53:51.959Z,220
2016-07-22T06:54:52.396Z,230
2016-07-22T06:55:52.025Z,230
2016-07-22T06:56:51.954Z,220
2016-07-22T06:57:51.944Z,210
2016-07-22T06:58:52.019Z,200
2016-07-22T06:59:51.945Z,185
2016-07-22T07:00:52.273Z,180
2016-07-22T07:01:53.081Z,180
2016-07-22T07:02:52.175Z,175
2016-07-22T07:03:52.248Z,165
2016-07-22T07:04:51.954Z,155
2016-07-22T07:05:52.564Z,150
2016-07-22T07:06:53.194Z,140
2016-07-22T07:07:51.980Z,130
2016-07-22T07:08:51.973Z,120
2016-07-22T07:09:52.006Z,105
2016-07-22T07:10:51.969Z,105
2016-07-22T07:11:51.960Z,110
2016-07-22T07:12:51.969Z,120
2016-07-22T07:13:54.113Z,160
2016-07-22T07:14:52.021Z,175
2016-07-22T07:15:52.006Z,185
2016-07-22T07:16:52.027Z,200
2016-07-22T07:17:51.989Z,210
2016-07-22T07:18:52.027Z,210
2016-07-22T07:19:52.028Z,205
2016-07-22T07:20:51.969Z,200
2016-07-22T07:21:51.938Z,185
2016-07-22T07:22:52.103Z,185
2016-07-22T07:23:57.156Z,195
2016-07-22T07:24:52.021Z,220
2016-07-22T07:25:51.982Z,235
2016-07-22T07:26:53.847Z,245
2016-07-22T07:27:52.024Z,245
2016-07-22T07:28:52.041Z,250
2016-07-22T07:29:52.324Z,265
2016-07-22T07:30:52.056Z,280
2016-07-22T07:31:55.755Z,285
2016-07-22T07:32:51.995Z,285
2016-07-22T07:33:52.123Z,300
2016-07-22T07:34:52.009Z,350
2016-07-22T07:35:52.008Z,345
2016-07-22T07:36:55.941Z,320
2016-07-22T07:37:51.994Z,315
2016-07-22T07:38:52.084Z,340
2016-07-22T07:39:55.573Z,370
2016-07-22T07:40:55.452Z,420
2016-07-22T07:41:52.947Z,465
2016-07-22T07:42:56.390Z,465
2016-07-22T07:43:52.924Z,465
2016-07-22T07:44:54.192Z,480
2016-07-22T07:45:51.964Z,470
2016-07-22T07:46:52.054Z,485
2016-07-22T07:47:52.096Z,500
2016-07-22T07:49:05.166Z,510
2016-07-22T07:49:52.036Z,515
2016-07-22T07:50:52.052Z,520
2016-07-22T07:51:52.005Z,540
2016-07-22T07:52:52.029Z,555
2016-07-22T07:53:54.671Z,575
2016-07-22T07:54:52.260Z,625
2016-07-22T07:55:52.862Z,765
2016-07-22T07:56:52.007Z,835
2016-07-22T07:57:52.027Z,870
2016-07-22T07:58:52.029Z,860
2016-07-22T07:59:52.038Z,790
2016-07-22T08:00:52.019Z,790
2016-07-22T08:01:52.024Z,640
2016-07-22T08:02:53.628Z,790
2016-07-22T08:03:54.237Z,795
2016-07-22T08:05:02.283Z,745
2016-07-22T08:05:55.211Z,825
2016-07-22T08:06:52.103Z,840
2016-07-22T08:07:52.117Z,865
2016-07-22T08:08:52.168Z,770
2016-07-22T08:09:52.160Z,835
2016-07-22T08:10:51.986Z,865
2016-07-22T08:11:52.012Z,885
2016-07-22T08:12:52.011Z,910
2016-07-22T08:13:52.040Z,920
2016-07-22T08:14:52.360Z,950
2016-07-22T08:15:52.029Z,945
2016-07-22T08:16:52.545Z,960
2016-07-22T08:17:52.108Z,970
2016-07-22T08:18:52.129Z,1010
2016-07-22T08:19:52.861Z,945
2016-07-22T08:20:52.092Z,915
2016-07-22T08:21:54.585Z,960
2016-07-22T08:22:52.976Z,960
2016-07-22T08:23:52.053Z,1005
2016-07-22T08:24:53.111Z,1040
2016-07-22T08:25:54.119Z,1045
2016-07-22T08:26:53.966Z,1030
2016-07-22T08:27:54.220Z,1060
2016-07-22T08:28:52.187Z,1095
2016-07-22T08:29:52.262Z,1060
2016-07-22T08:30:52.085Z,1015
2016-07-22T08:31:52.317Z,990
2016-07-22T08:32:55.222Z,975
2016-07-22T08:34:00.349Z,975
2016-07-22T08:34:52.094Z,970
2016-07-22T08:35:52.086Z,970
2016-07-22T08:36:54.039Z,945
2016-07-22T08:37:52.827Z,965
2016-07-22T08:38:56.245Z,945
2016-07-22T08:39:52.280Z,940
2016-07-22T08:40:52.235Z,935
2016-07-22T08:41:52.432Z,960
2016-07-22T08:42:54.799Z,1015
2016-07-22T08:43:52.492Z,1055
2016-07-22T08:44:52.101Z,1185
2016-07-22T08:45:52.560Z,1230
2016-07-22T08:46:54.128Z,1270
2016-07-22T08:47:52.109Z,1275
2016-07-22T08:48:52.115Z,1290
2016-07-22T08:49:52.150Z,1295
2016-07-22T08:50:53.186Z,1225
2016-07-22T08:51:52.538Z,1165
2016-07-22T08:52:53.059Z,1080
2016-07-22T08:53:52.526Z,1020
2016-07-22T08:54:52.479Z,1045
2016-07-22T08:55:52.412Z,950
2016-07-22T08:56:52.224Z,930
2016-07-22T08:57:52.682Z,985
2016-07-22T08:58:52.719Z,1160
2016-07-22T08:59:53.310Z,1160
2016-07-22T09:00:53.466Z,1250
2016-07-22T09:01:52.291Z,1295
2016-07-22T09:02:53.221Z,1100
2016-07-22T09:03:54.409Z,1220
2016-07-22T09:04:54.126Z,1240
2016-07-22T09:06:52.186Z,1340
2016-07-22T09:07:52.134Z,1320
2016-07-22T09:08:53.035Z,1315
2016-07-22T09:09:52.622Z,1355
2016-07-22T09:10:52.232Z,1215
2016-07-22T09:11:53.016Z,1245
2016-07-22T09:12:53.535Z,1235
2016-07-22T09:13:53.740Z,1175
2016-07-22T09:14:52.342Z,1140
2016-07-22T09:15:56.159Z,1220
2016-07-22T09:16:55.782Z,1200
2016-07-22T09:17:56.193Z,1185
2016-07-22T09:18:52.216Z,1160
2016-07-22T09:19:52.205Z,655
2016-07-22T09:20:52.998Z,1165
2016-07-22T09:21:52.393Z,920
2016-07-22T09:22:52.334Z,1045
2016-07-22T09:23:53.497Z,850
2016-07-22T09:25:09.074Z,1185
2016-07-22T09:25:52.159Z,1240
2016-07-22T09:26:52.634Z,715
2016-07-22T09:27:52.185Z,1145
2016-07-22T09:29:02.540Z,1015
2016-07-22T09:29:52.557Z,1010
2016-07-22T09:30:55.911Z,920
2016-07-22T09:31:52.465Z,910
2016-07-22T09:32:52.200Z,735
2016-07-22T09:34:20.683Z,955
2016-07-22T09:34:52.896Z,925
2016-07-22T09:35:53.383Z,760
2016-07-22T09:36:52.157Z,740
2016-07-22T09:37:52.321Z,655
2016-07-22T09:38:52.904Z,625
2016-07-22T09:39:52.645Z,540
2016-07-22T09:41:15.061Z,425
2016-07-22T09:41:52.659Z,385
2016-07-22T09:42:56.869Z,365
2016-07-22T09:43:52.821Z,350
2016-07-22T09:44:52.259Z,335
2016-07-22T09:45:52.527Z,315
2016-07-22T09:46:52.555Z,300
2016-07-22T09:47:52.185Z,285
2016-07-22T09:48:52.399Z,275
2016-07-22T09:49:53.643Z,270
2016-07-22T09:50:55.868Z,260
2016-07-22T09:51:57.139Z,260
2016-07-22T09:53:04.989Z,255
2016-07-22T09:53:59.206Z,250
2016-07-22T09:54:55.262Z,240
2016-07-22T09:55:56.330Z,235
2016-07-22T09:56:52.507Z,230
2016-07-22T09:57:52.993Z,225
2016-07-22T09:58:53.431Z,205
2016-07-22T09:59:52.415Z,190
2016-07-22T10:00:53.317Z,150
2016-07-22T10:01:53.611Z,120
2016-07-22T10:02:52.282Z,95
2016-07-22T10:04:02.409Z,60
2016-07-22T10:04:52.246Z,55
2016-07-22T10:05:54.941Z,50
2016-07-22T10:06:53.266Z,40
2016-07-22T10:07:59.869Z,40
2016-07-22T10:08:54.689Z,45
2016-07-22T10:09:59.174Z,45
2016-07-22T10:10:59.036Z,50
2016-07-22T10:11:55.029Z,50
2016-07-22T10:13:43.475Z,65
2016-07-22T10:14:03.982Z,65
2016-07-22T10:15:34.485Z,90
2016-07-22T10:16:09.048Z,105
2016-07-22T10:17:01.096Z,135
2016-07-22T10:18:01.044Z,190
2016-07-22T10:19:01.097Z,260
2016-07-22T10:20:00.947Z,305
2016-07-22T10:21:00.922Z,305
2016-07-22T10:22:01.576Z,350
2016-07-22T10:23:01.318Z,365
2016-07-22T10:24:01.242Z,340
2016-07-22T10:25:01.364Z,360
2016-07-22T10:26:01.148Z,425
2016-07-22T10:27:02.755Z,1025
2016-07-22T10:28:03.985Z,1030
2016-07-22T10:29:00.788Z,1545
2016-07-22T10:30:01.524Z,1610
2016-07-22T10:43:02.781Z,605
2016-07-22T10:43:40.686Z,630
2016-07-22T10:44:37.062Z,670
2016-07-22T10:45:36.670Z,685
2016-07-22T10:46:40.453Z,645
2016-07-22T10:48:20.698Z,735
2016-07-22T10:48:52.022Z,965
2016-07-22T10:49:42.426Z,1410
2016-07-22T10:50:56.494Z,1645
2016-07-22T10:52:05.252Z,1590
2016-07-22T10:52:59.585Z,1475
2016-07-22T10:53:43.760Z,1035
2016-07-22T10:54:40.084Z,620
2016-07-22T10:55:43.844Z,520
2016-07-22T10:56:42.407Z,495
2016-07-22T10:57:40.522Z,480
2016-07-22T10:58:41.011Z,430
2016-07-22T10:59:40.544Z,420
2016-07-22T11:00:40.027Z,420
2016-07-22T11:01:40.901Z,430
2016-07-22T11:02:40.098Z,475
2016-07-22T11:03:40.113Z,560
2016-07-22T11:04:41.808Z,655
2016-07-22T11:05:41.525Z,520
2016-07-22T11:06:40.244Z,430
2016-07-22T11:07:40.059Z,385
2016-07-22T11:08:40.768Z,380
2016-07-22T11:09:41.105Z,380
2016-07-22T11:10:40.040Z,425
2016-07-22T11:11:41.394Z,540
2016-07-22T11:12:42.629Z,550
2016-07-22T11:13:43.420Z,555
2016-07-22T11:14:46.396Z,575
2016-07-22T11:15:43.306Z,585
2016-07-22T11:16:44.526Z,650
2016-07-22T11:17:40.158Z,1625
2016-07-22T11:18:40.305Z,1300
2016-07-22T11:19:40.761Z,1895
2016-07-22T11:20:43.816Z,1920
2016-07-22T11:21:40.040Z,1905
2016-07-22T11:22:40.392Z,1880
2016-07-22T11:23:40.983Z,1845
2016-07-22T11:24:40.155Z,1800
2016-07-22T11:25:40.108Z,1825
2016-07-22T11:26:40.109Z,1655
2016-07-22T11:27:40.953Z,1455
2016-07-22T11:28:43.236Z,1355
2016-07-22T11:29:40.109Z,1245
2016-07-22T11:30:43.691Z,1165
2016-07-22T11:31:41.328Z,1160
2016-07-22T11:32:42.615Z,1155
2016-07-22T11:33:43.520Z,1135
2016-07-22T11:34:40.156Z,1145
2016-07-22T11:35:42.042Z,1115
2016-07-22T11:36:40.178Z,1095
2016-07-22T11:37:44.367Z,1085
2016-07-22T11:38:40.530Z,1095
2016-07-22T11:39:42.116Z,1035
2016-07-22T11:40:40.123Z,1155
2016-07-22T11:41:41.536Z,1200
2016-07-22T11:42:42.295Z,1250
2016-07-22T11:43:48.215Z,1320
2016-07-22T11:44:40.808Z,1390
2016-07-22T11:45:40.241Z,1385
2016-07-22T11:46:40.236Z,1640
2016-07-22T11:47:40.555Z,1695
2016-07-22T11:48:43.068Z,1740
2016-07-22T11:49:40.691Z,1750
2016-07-22T11:50:40.317Z,1725
2016-07-22T11:51:40.998Z,1735
2016-07-22T11:52:40.326Z,1705
2016-07-22T11:53:41.589Z,1710
2016-07-22T11:54:40.199Z,1225
2016-07-22T11:55:40.681Z,1780
2016-07-22T11:56:40.150Z,970
2016-07-22T11:57:40.090Z,1255
2016-07-22T11:58:41.239Z,1115
2016-07-22T11:59:40.429Z,1360
2016-07-22T12:00:40.538Z,1035
2016-07-22T12:01:41.710Z,725
2016-07-22T12:02:40.905Z,760
2016-07-22T12:03:40.339Z,1050
2016-07-22T12:04:43.380Z,1765
2016-07-22T12:05:40.229Z,1610
2016-07-22T12:06:40.936Z,1650
2016-07-22T12:07:44.926Z,1720
2016-07-22T12:08:40.794Z,1715
2016-07-22T12:09:42.112Z,1735
2016-07-22T12:10:40.134Z,1755
2016-07-22T12:11:40.388Z,1740
2016-07-22T12:12:40.238Z,1715
2016-07-22T12:13:40.169Z,1685
2016-07-22T12:14:40.624Z,1690
2016-07-22T12:15:40.163Z,1395
2016-07-22T12:16:42.263Z,1620
2016-07-22T12:17:40.410Z,570
2016-07-22T12:18:41.271Z,1060
2016-07-22T12:19:40.434Z,1655
2016-07-22T12:20:42.365Z,665
2016-07-22T12:21:40.904Z,495
2016-07-22T12:22:40.237Z,760
2016-07-22T12:23:40.712Z,860
2016-07-22T12:24:40.493Z,1620
2016-07-22T12:25:41.222Z,1045
2016-07-22T12:26:40.462Z,1025
2016-07-22T12:27:40.429Z,680
2016-07-22T12:28:40.199Z,1710
2016-07-22T12:29:40.256Z,1720
2016-07-22T12:30:41.354Z,1470
2016-07-22T12:31:42.635Z,1095
2016-07-22T12:32:41.581Z,1705
2016-07-22T12:33:40.594Z,1695
2016-07-22T12:34:42.339Z,530
2016-07-22T12:35:40.320Z,475
2016-07-22T12:36:41.293Z,490
2016-07-22T12:37:40.154Z,445
2016-07-22T12:38:40.209Z,415
2016-07-22T12:39:40.400Z,435
2016-07-22T12:40:40.362Z,505
2016-07-22T12:41:40.244Z,1115
2016-07-22T12:42:40.503Z,635
2016-07-22T12:43:41.273Z,505
2016-07-22T12:44:40.687Z,455
2016-07-22T12:45:43.235Z,445
2016-07-22T12:46:40.567Z,470
2016-07-22T12:47:40.591Z,455
2016-07-22T12:48:40.157Z,490
2016-07-22T12:49:40.296Z,530
2016-07-22T12:50:40.216Z,685
2016-07-22T12:51:40.342Z,590
2016-07-22T12:52:40.159Z,415
2016-07-22T12:53:40.178Z,345
2016-07-22T12:54:40.447Z,280
2016-07-22T12:55:40.144Z,245
2016-07-22T12:56:40.182Z,220
2016-07-22T12:57:40.912Z,215
2016-07-22T12:58:40.249Z,210
2016-07-22T12:59:40.173Z,205
2016-07-22T13:00:40.631Z,210
2016-07-22T13:01:40.238Z,205
2016-07-22T13:02:40.136Z,205
2016-07-22T13:03:40.133Z,200
2016-07-22T13:04:40.119Z,190
2016-07-22T13:05:40.077Z,180
2016-07-22T13:06:40.118Z,175
2016-07-22T13:07:40.111Z,165
2016-07-22T13:08:40.950Z,145
2016-07-22T13:09:41.357Z,130
2016-07-22T13:10:40.242Z,115
2016-07-22T13:11:40.116Z,110
2016-07-22T13:12:40.096Z,100
2016-07-22T13:13:40.162Z,100
2016-07-22T13:14:40.120Z,100
2016-07-22T13:15:40.127Z,100
2016-07-22T13:16:40.267Z,110
2016-07-22T13:17:40.261Z,120
2016-07-22T13:18:40.207Z,135
2016-07-22T13:19:40.202Z,140
2016-07-22T13:20:40.159Z,145
2016-07-22T13:21:40.236Z,155
2016-07-22T13:22:40.358Z,165
2016-07-22T13:23:40.111Z,175
2016-07-22T13:24:40.137Z,190
2016-07-22T13:25:40.192Z,200
2016-07-22T13:26:40.166Z,220
2016-07-22T13:27:40.205Z,240
2016-07-22T13:28:48.659Z,290
2016-07-22T13:29:41.351Z,425
2016-07-22T13:30:40.251Z,410
2016-07-22T13:31:40.925Z,485
2016-07-22T13:32:42.804Z,365
2016-07-22T13:33:43.288Z,320
2016-07-22T13:34:40.890Z,285
2016-07-22T13:35:41.030Z,280
2016-07-22T13:36:41.251Z,280
2016-07-22T13:37:41.504Z,285
2016-07-22T13:38:40.186Z,295
2016-07-22T13:39:41.955Z,285
2016-07-22T13:40:40.532Z,285
2016-07-22T13:41:40.197Z,275
2016-07-22T13:42:40.204Z,250
2016-07-22T13:43:40.258Z,250
2016-07-22T13:44:40.198Z,255
2016-07-22T13:45:40.188Z,255
2016-07-22T13:46:40.379Z,260
2016-07-22T13:47:40.294Z,265
2016-07-22T13:48:40.251Z,265
2016-07-22T13:49:40.288Z,270
2016-07-22T13:50:40.188Z,270
2016-07-22T13:51:40.220Z,270
2016-07-22T13:52:40.216Z,270
2016-07-22T13:53:40.169Z,270
2016-07-22T13:54:40.216Z,270
2016-07-22T13:55:40.277Z,280
2016-07-22T13:56:40.113Z,290
2016-07-22T13:57:40.301Z,290
2016-07-22T13:58:40.145Z,295
2016-07-22T13:59:40.143Z,305
2016-07-22T14:00:40.107Z,315
2016-07-22T14:01:40.820Z,325
2016-07-22T14:02:40.194Z,335
2016-07-22T14:03:40.136Z,340
2016-07-22T14:04:40.142Z,360
2016-07-22T14:05:40.134Z,350
2016-07-22T14:06:40.138Z,370
2016-07-22T14:07:42.175Z,410
2016-07-22T14:08:40.134Z,425
2016-07-22T14:09:40.963Z,420
2016-07-22T14:10:40.177Z,405
2016-07-22T14:11:41.149Z,435
2016-07-22T14:12:40.173Z,405
2016-07-22T14:13:40.160Z,765